Terminal Aerodrome Forecast
Issued by NWS

Home | Current Version | Previous Version | Text Only | Print | Product List | Glossary On
Versions: 1 2 3 4 5 6 7 8 9 10 11 12 13 14
749
FTUS44 KJAN 221732
TAFGTR
TAF
KGTR 221732Z 2218/2318 24010KT 4SM -RA BR SCT009 OVC045
     FM230500 30010G16KT 5SM -SHRA OVC009
     FM230900 33015G22KT P6SM OVC009
     FM231500 33014G20KT P6SM OVC015=

USA.gov is the U.S. government's official web portal to all federal, state and local government web resources and services.